GSO weather

Piedmont Triad International Airport
Greensboro, North Carolina, United States

Public forecast

Using degrees Fahrenheit for public forecast. Weather courtesy of forecast.io.

Current aviation weather report (METAR) for Piedmont Triad International Airport

Retrieved 2019/10/15 09:54 UTC (1 hour ago):

KGSO 150954Z 00000KT 10SM FEW250 08/06 A3012 RMK AO2 SLP197 T00780061

Aviation forecast (TAF) for Piedmont Triad International Airport

Retrieved 2019/10/15 06:36 UTC (4 hours ago):

TAF KGSO 150534Z 1506/1606 VRB02KT P6SM SCT250 FM152000 VRB05KT P6SM BKN250